7PA7 weather

Public forecast

Using degrees Fahrenheit for public forecast. Weather courtesy of forecast.io.

Closest aviation weather report (METAR) to One Montgomery Plaza Heliport

Closest report is Wings Field, 3.9 nm (7.2 km) ENE. Retrieved 2020/08/14 16:15 UTC (0 seconds ago):

KLOM 141615Z AUTO 05009KT 10SM SCT032 BKN037 SCT045 28/21 A3000 RMK AO2 T02760213

Closest aviation forecast (TAF) to One Montgomery Plaza Heliport

Closest forecast is Philadelphia International Airport, 15.4 nm (28.5 km) SSE. Retrieved 2020/08/14 12:28 UTC (4 hours ago):

TAF KPHL 141120Z 1412/1518 05006KT P6SM BKN012 TEMPO 1412/1413 4SM BR BKN008 OVC012 FM141300 05008KT P6SM -SHRA BKN020 FM141700 06010KT P6SM BKN035 FM142000 06010KT P6SM SCT045 FM150600 03008KT P6SM SCT250 FM151300 06010KT P6SM SCT250